createdAt,value
2023-01-11T00:01:27.997Z,6.85
2023-01-11T00:03:56.400Z,7.18
2023-01-11T00:06:26.223Z,7.36
2023-01-11T00:09:00.045Z,6.39
2023-01-11T00:11:28.739Z,7.67
2023-01-11T00:13:56.983Z,7.32
2023-01-11T00:16:25.426Z,7.13
2023-01-11T00:18:53.794Z,6.99
2023-01-11T00:21:22.799Z,7.04
2023-01-11T00:23:52.482Z,6.67
2023-01-11T00:26:20.845Z,7.16
2023-01-11T00:28:49.963Z,7.35
2023-01-11T00:31:18.658Z,7.26
2023-01-11T00:33:46.938Z,7.14
2023-01-11T00:36:15.258Z,7.23
2023-01-11T00:38:47.170Z,7.28
2023-01-11T00:41:43.155Z,7.30
2023-01-11T00:44:29.523Z,8.10
2023-01-11T00:47:15.366Z,8.10
2023-01-11T00:49:43.878Z,7.23
2023-01-11T00:52:12.668Z,7.18
2023-01-11T00:54:42.757Z,7.18
2023-01-11T00:57:12.969Z,7.42
2023-01-11T00:59:41.418Z,7.54
2023-01-11T01:02:10.578Z,7.26
2023-01-11T01:04:39.530Z,7.16
2023-01-11T01:07:08.254Z,6.96
2023-01-11T01:09:36.561Z,7.32
2023-01-11T01:12:07.100Z,7.13
2023-01-11T01:14:36.464Z,7.59
2023-01-11T01:17:08.412Z,8.08
2023-01-11T01:19:39.108Z,8.25
2023-01-11T01:22:07.483Z,8.19
2023-01-11T01:24:35.969Z,8.12
2023-01-11T01:27:04.226Z,7.46
2023-01-11T01:29:32.450Z,7.54
2023-01-11T01:32:02.150Z,7.35
2023-01-11T01:34:30.528Z,7.16
2023-01-11T01:36:58.830Z,6.93
2023-01-11T01:39:28.983Z,7.05
2023-01-11T01:41:57.477Z,7.03
2023-01-11T01:44:55.208Z,6.79
2023-01-11T01:47:28.618Z,7.11
2023-01-11T01:49:58.889Z,7.40
2023-01-11T01:52:29.434Z,7.40
2023-01-11T01:55:01.951Z,7.48
2023-01-11T01:57:35.612Z,7.15
2023-01-11T02:00:08.872Z,7.33
2023-01-11T02:02:40.112Z,7.24
2023-01-11T02:05:10.245Z,7.03
2023-01-11T02:07:41.811Z,7.01
2023-01-11T02:10:12.064Z,6.90
2023-01-11T02:12:43.535Z,6.77
2023-01-11T02:15:12.935Z,6.56
2023-01-11T02:17:42.605Z,6.17
2023-01-11T02:20:21.691Z,6.41
2023-01-11T02:23:10.850Z,6.37
2023-01-11T02:26:18.959Z,6.47
2023-01-11T02:28:54.985Z,6.47
2023-01-11T02:31:32.158Z,6.34
2023-01-11T02:34:16.638Z,6.24
2023-01-11T02:37:03.189Z,6.41
2023-01-11T02:39:40.907Z,6.45
2023-01-11T02:42:32.875Z,6.06
2023-01-11T02:45:13.427Z,6.09
2023-01-11T02:47:49.653Z,5.64
2023-01-11T02:50:23.249Z,6.00
2023-01-11T02:52:58.146Z,6.12
2023-01-11T02:55:31.977Z,5.97
2023-01-11T02:58:05.022Z,6.03
2023-01-11T03:00:35.149Z,5.97
2023-01-11T03:03:13.832Z,6.44
2023-01-11T03:05:50.506Z,6.11
2023-01-11T03:08:40.822Z,6.24
2023-01-11T03:11:14.516Z,6.37
2023-01-11T03:13:55.286Z,6.26
2023-01-11T03:16:28.655Z,5.95
2023-01-11T03:19:14.793Z,6.34
2023-01-11T03:21:57.383Z,6.35
2023-01-11T03:24:34.178Z,6.01
2023-01-11T03:27:18.638Z,5.98
2023-01-11T03:29:53.532Z,5.89
2023-01-11T03:32:33.647Z,5.82
2023-01-11T03:35:18.211Z,5.81
2023-01-11T03:37:52.618Z,6.03
2023-01-11T03:40:24.629Z,6.12
2023-01-11T03:43:14.301Z,6.09
2023-01-11T03:45:48.140Z,5.95
2023-01-11T03:48:21.914Z,6.02
2023-01-11T03:50:52.872Z,6.11
2023-01-11T03:53:24.462Z,6.02
2023-01-11T03:55:57.286Z,6.55
2023-01-11T03:58:27.180Z,6.52
2023-01-11T04:00:56.984Z,6.83
2023-01-11T04:03:28.342Z,6.72
2023-01-11T04:06:00.654Z,6.71
2023-01-11T04:08:29.000Z,6.52
2023-01-11T04:10:57.455Z,6.94
2023-01-11T04:13:25.779Z,6.77
2023-01-11T04:15:54.799Z,6.98
2023-01-11T04:18:23.425Z,6.95
2023-01-11T04:20:53.177Z,7.30
2023-01-11T04:23:21.463Z,7.64
2023-01-11T04:25:49.713Z,7.81
2023-01-11T04:28:18.030Z,7.95
2023-01-11T04:30:46.236Z,7.98
2023-01-11T04:33:14.653Z,8.01
2023-01-11T04:35:44.040Z,7.95
2023-01-11T04:38:13.903Z,8.03
2023-01-11T04:40:42.250Z,7.93
2023-01-11T04:43:09.497Z,7.88
2023-01-11T04:45:40.182Z,7.88
2023-01-11T04:48:08.601Z,7.76
2023-01-11T04:50:36.878Z,7.77
2023-01-11T04:53:05.250Z,7.78
2023-01-11T04:55:34.970Z,7.55
2023-01-11T04:58:03.228Z,7.55
2023-01-11T05:00:31.499Z,6.91
2023-01-11T05:03:03.361Z,6.86
2023-01-11T05:05:31.703Z,6.57
2023-01-11T05:07:59.977Z,6.82
2023-01-11T05:10:28.253Z,6.83
2023-01-11T05:12:57.919Z,6.83
2023-01-11T05:15:26.265Z,7.04
2023-01-11T05:17:54.648Z,7.20
2023-01-11T05:20:22.958Z,7.08
2023-01-11T05:22:51.233Z,7.33
2023-01-11T05:25:19.508Z,7.37
2023-01-11T05:27:47.781Z,7.39
2023-01-11T05:30:20.024Z,7.37
2023-01-11T05:32:48.361Z,7.36
2023-01-11T05:35:16.828Z,7.42
2023-01-11T05:37:45.127Z,7.38
2023-01-11T05:40:14.084Z,7.38
2023-01-11T05:42:42.419Z,7.42
2023-01-11T05:45:30.952Z,7.24
2023-01-11T05:48:00.994Z,7.15
2023-01-11T05:50:29.343Z,7.33
2023-01-11T05:52:58.876Z,7.09
2023-01-11T05:55:27.207Z,7.13
2023-01-11T05:57:55.590Z,7.12
2023-01-11T06:00:24.802Z,7.29
2023-01-11T06:02:53.181Z,7.21
2023-01-11T06:05:22.963Z,7.15
2023-01-11T06:07:51.462Z,7.30
2023-01-11T06:10:19.836Z,7.26
2023-01-11T06:13:13.258Z,7.44
2023-01-11T06:15:41.749Z,7.31
2023-01-11T06:18:10.099Z,7.36
2023-01-11T06:20:41.242Z,7.15
2023-01-11T06:23:09.521Z,6.93
2023-01-11T06:25:38.437Z,7.01
2023-01-11T06:28:06.928Z,7.26
2023-01-11T06:30:35.354Z,7.49
2023-01-11T06:33:21.837Z,7.56
2023-01-11T06:35:52.957Z,7.34
2023-01-11T06:38:23.887Z,7.25
2023-01-11T06:40:54.469Z,7.26
2023-01-11T06:43:23.316Z,7.40
2023-01-11T06:45:52.041Z,7.49
2023-01-11T06:48:22.048Z,7.50
2023-01-11T06:50:53.205Z,7.19
2023-01-11T06:53:21.936Z,7.11
2023-01-11T06:55:52.376Z,7.41
2023-01-11T06:58:20.903Z,7.45
2023-01-11T07:00:49.297Z,7.61
2023-01-11T07:03:17.815Z,6.85
2023-01-11T07:05:46.564Z,7.82
2023-01-11T07:08:16.489Z,8.11
2023-01-11T07:10:44.970Z,7.84
2023-01-11T07:13:16.335Z,8.60
2023-01-11T07:15:45.118Z,8.55
2023-01-11T07:18:13.592Z,8.24
2023-01-11T07:20:41.977Z,8.60
2023-01-11T07:23:11.083Z,8.81
2023-01-11T07:25:41.335Z,8.66
2023-01-11T07:28:10.184Z,8.97
2023-01-11T07:31:00.618Z,8.70
2023-01-11T07:33:29.163Z,9.17
2023-01-11T07:35:58.438Z,9.34
2023-01-11T07:38:26.690Z,9.20
2023-01-11T07:40:56.484Z,9.18
2023-01-11T07:43:23.964Z,9.32
2023-01-11T07:45:53.816Z,8.77
2023-01-11T07:48:25.470Z,9.42
2023-01-11T07:50:54.399Z,9.12
2023-01-11T07:53:25.784Z,8.69
2023-01-11T07:55:56.309Z,8.74
2023-01-11T07:58:25.245Z,8.52
2023-01-11T08:00:53.721Z,8.82
2023-01-11T08:03:22.159Z,9.10
2023-01-11T08:05:52.124Z,8.91
2023-01-11T08:08:20.466Z,8.49
2023-01-11T08:11:08.836Z,8.92
2023-01-11T08:13:55.933Z,8.84
2023-01-11T08:16:24.599Z,8.97
2023-01-11T08:18:52.937Z,8.91
2023-01-11T08:21:24.469Z,8.85
2023-01-11T08:23:54.902Z,8.91
2023-01-11T08:26:24.040Z,8.62
2023-01-11T08:28:55.275Z,8.30
2023-01-11T08:31:24.732Z,8.59
2023-01-11T08:33:53.521Z,9.79
2023-01-11T08:36:21.916Z,10.41
2023-01-11T08:38:50.122Z,11.58
2023-01-11T08:41:18.417Z,12.35
2023-01-11T08:43:47.497Z,12.67
2023-01-11T08:46:18.421Z,11.66
2023-01-11T08:48:47.974Z,11.10
2023-01-11T08:51:16.386Z,11.77
2023-01-11T08:53:44.733Z,10.70
2023-01-11T08:56:13.457Z,10.82
2023-01-11T08:58:41.676Z,10.25
2023-01-11T09:01:10.061Z,10.66
2023-01-11T09:03:39.828Z,10.61
2023-01-11T09:06:08.500Z,10.83
2023-01-11T09:08:36.822Z,10.28
2023-01-11T09:11:25.236Z,10.35
2023-01-11T09:13:53.525Z,10.28
2023-01-11T09:16:21.800Z,10.31
2023-01-11T09:18:51.740Z,10.11
2023-01-11T09:21:20.082Z,10.75
2023-01-11T09:23:48.380Z,11.74
2023-01-11T09:26:16.793Z,11.46
2023-01-11T09:28:45.173Z,11.84
2023-01-11T09:31:13.774Z,12.29
2023-01-11T09:33:42.156Z,12.43
2023-01-11T09:36:12.110Z,12.75
2023-01-11T09:38:41.133Z,12.45
2023-01-11T09:41:24.398Z,14.02
2023-01-11T09:44:01.890Z,14.25
2023-01-11T09:46:31.225Z,13.69
2023-01-11T09:49:00.778Z,13.23
2023-01-11T09:51:35.233Z,14.06
2023-01-11T09:54:07.987Z,14.54
2023-01-11T09:56:45.998Z,14.19
2023-01-11T09:59:24.897Z,14.47
2023-01-11T10:02:05.528Z,13.94
2023-01-11T10:05:10.925Z,13.32
2023-01-11T10:18:33.922Z,13.62
2023-01-11T10:19:48.296Z,13.58
2023-01-11T10:22:23.539Z,13.75
2023-01-11T10:24:59.965Z,13.09
2023-01-11T10:27:35.850Z,12.84
2023-01-11T10:30:33.496Z,13.62
2023-01-11T10:33:18.453Z,13.52
2023-01-11T10:36:10.674Z,13.64
2023-01-11T10:39:03.438Z,12.92
2023-01-11T10:41:43.163Z,13.50
2023-01-11T10:44:19.495Z,13.08
2023-01-11T10:46:51.270Z,13.01
2023-01-11T10:49:41.193Z,12.96
2023-01-11T10:52:23.220Z,12.64
2023-01-11T10:54:55.994Z,12.94
2023-01-11T10:57:38.193Z,13.41
2023-01-11T11:00:35.589Z,14.12
2023-01-11T11:03:45.247Z,14.54
2023-01-11T11:06:22.597Z,14.22
2023-01-11T11:08:58.466Z,13.95
2023-01-11T11:11:35.081Z,13.89
2023-01-11T11:14:13.780Z,13.17
2023-01-11T11:16:55.093Z,13.53
2023-01-11T11:19:26.646Z,12.86
2023-01-11T11:21:54.904Z,12.43
2023-01-11T11:24:32.590Z,12.83
2023-01-11T11:27:08.480Z,13.83
2023-01-11T11:29:44.735Z,13.84
2023-01-11T11:32:22.379Z,13.77
2023-01-11T11:34:52.305Z,12.65
2023-01-11T11:37:27.932Z,11.95
2023-01-11T11:39:56.754Z,12.51
2023-01-11T11:42:25.581Z,12.59
2023-01-11T11:45:19.134Z,14.01
2023-01-11T11:48:08.142Z,15.44
2023-01-11T11:50:44.804Z,15.62
2023-01-11T11:53:25.207Z,16.98
2023-01-11T11:55:54.545Z,16.85
2023-01-11T11:58:26.446Z,17.55
2023-01-11T12:00:56.272Z,17.89
2023-01-11T12:03:30.266Z,17.66
2023-01-11T12:06:02.094Z,17.41
2023-01-11T12:08:32.851Z,17.80
2023-01-11T12:11:04.163Z,18.66
2023-01-11T12:13:35.420Z,19.03
2023-01-11T12:16:08.228Z,18.48
2023-01-11T12:18:42.603Z,18.10
2023-01-11T12:21:19.714Z,18.11
2023-01-11T12:23:48.578Z,18.38
2023-01-11T12:26:22.877Z,18.80
2023-01-11T12:29:15.750Z,19.92
2023-01-11T12:31:58.652Z,19.52
2023-01-11T12:35:06.044Z,19.32
2023-01-11T12:37:51.803Z,19.17
2023-01-11T12:40:28.672Z,19.39
2023-01-11T12:43:20.647Z,20.59
2023-01-11T12:45:56.823Z,18.97
2023-01-11T12:48:53.810Z,19.01
2023-01-11T12:51:42.869Z,18.59
2023-01-11T12:54:31.385Z,18.80
2023-01-11T12:57:12.906Z,18.92
2023-01-11T13:00:00.205Z,18.19
2023-01-11T13:02:47.882Z,18.65
2023-01-11T13:05:26.070Z,18.95
2023-01-11T13:08:06.698Z,20.06
2023-01-11T13:10:43.897Z,20.47
2023-01-11T13:13:17.356Z,20.01
2023-01-11T13:15:54.913Z,18.73
2023-01-11T13:18:31.288Z,19.21
2023-01-11T13:21:09.396Z,17.27
2023-01-11T13:23:43.551Z,17.67
2023-01-11T13:26:23.515Z,17.50
2023-01-11T13:28:56.491Z,17.96
2023-01-11T13:31:26.233Z,18.64
2023-01-11T13:33:59.148Z,18.44
2023-01-11T13:36:33.684Z,17.28
2023-01-11T13:39:06.323Z,18.79
2023-01-11T13:41:39.691Z,19.21
2023-01-11T13:44:16.451Z,18.97
2023-01-11T13:46:55.147Z,19.34
2023-01-11T13:49:38.361Z,20.34
2023-01-11T13:52:14.287Z,19.20
2023-01-11T13:54:51.785Z,19.16
2023-01-11T13:57:28.546Z,18.83
2023-01-11T14:00:05.992Z,19.12
2023-01-11T14:02:40.855Z,17.58
2023-01-11T14:05:16.131Z,17.69
2023-01-11T14:08:00.971Z,17.70
2023-01-11T14:10:44.565Z,16.85
2023-01-11T14:13:59.688Z,16.57
2023-01-11T14:16:39.522Z,15.36
2023-01-11T14:19:19.485Z,15.76
2023-01-11T14:22:02.457Z,14.63
2023-01-11T14:24:35.227Z,15.61
2023-01-11T14:27:41.850Z,15.97
2023-01-11T14:30:25.248Z,16.11
2023-01-11T14:33:32.307Z,15.65
2023-01-11T14:36:26.273Z,15.36
2023-01-11T14:39:23.864Z,14.76
2023-01-11T14:42:31.100Z,14.53
2023-01-11T14:45:17.314Z,14.70
2023-01-11T14:48:26.932Z,14.06
2023-01-11T14:51:30.712Z,13.83
2023-01-11T14:54:08.026Z,13.54
2023-01-11T14:56:52.997Z,12.97
2023-01-11T14:59:35.533Z,13.05
2023-01-11T15:02:31.023Z,12.73
2023-01-11T15:05:10.867Z,12.35
2023-01-11T15:07:43.360Z,12.91
2023-01-11T15:10:42.058Z,12.83
2023-01-11T15:13:17.406Z,12.57
2023-01-11T15:16:04.690Z,12.63
2023-01-11T15:18:33.409Z,12.22
2023-01-11T15:21:06.537Z,11.87
2023-01-11T15:23:38.303Z,11.55
2023-01-11T15:26:09.610Z,11.73
2023-01-11T15:28:50.786Z,11.53
2023-01-11T15:31:52.552Z,11.79
2023-01-11T15:34:26.572Z,11.65
2023-01-11T15:37:29.575Z,11.12
2023-01-11T15:40:02.622Z,11.39
2023-01-11T15:43:08.776Z,11.35
2023-01-11T15:46:24.296Z,11.27
2023-01-11T15:49:21.409Z,10.52
2023-01-11T15:52:18.021Z,11.24
2023-01-11T15:55:18.836Z,10.56
2023-01-11T15:58:15.986Z,10.57
2023-01-11T16:01:09.326Z,10.80
2023-01-11T16:03:58.946Z,10.71
2023-01-11T16:06:39.094Z,10.33
2023-01-11T16:09:26.079Z,10.22
2023-01-11T16:12:06.628Z,10.07
2023-01-11T16:14:53.076Z,10.17
2023-01-11T16:17:24.195Z,10.38
2023-01-11T16:19:56.797Z,10.54
2023-01-11T16:22:29.292Z,10.84
2023-01-11T16:25:05.525Z,11.20
2023-01-11T16:27:38.991Z,10.69
2023-01-11T16:30:16.442Z,10.25
2023-01-11T16:32:45.415Z,10.32
2023-01-11T16:35:26.096Z,10.40
2023-01-11T16:37:59.801Z,9.54
2023-01-11T16:40:33.419Z,10.14
2023-01-11T16:43:08.017Z,9.62
2023-01-11T16:45:42.751Z,10.16
2023-01-11T16:48:17.167Z,9.88
2023-01-11T16:51:04.039Z,9.92
2023-01-11T16:53:34.011Z,10.04
2023-01-11T16:56:07.267Z,7.28
2023-01-11T16:58:40.699Z,9.89
2023-01-11T17:01:12.055Z,9.76
2023-01-11T17:03:49.382Z,10.25
2023-01-11T17:06:22.652Z,9.99
2023-01-11T17:08:52.610Z,10.04
2023-01-11T17:11:27.096Z,10.15
2023-01-11T17:14:37.020Z,9.85
2023-01-11T17:17:10.041Z,9.70
2023-01-11T17:19:47.708Z,9.49
2023-01-11T17:22:25.234Z,9.89
2023-01-11T17:24:57.356Z,10.10
2023-01-11T17:27:31.142Z,9.85
2023-01-11T17:30:01.295Z,9.03
2023-01-11T17:32:37.263Z,9.52
2023-01-11T17:35:15.652Z,9.12
2023-01-11T17:37:46.749Z,9.32
2023-01-11T17:40:23.864Z,9.57
2023-01-11T17:43:10.700Z,9.89
2023-01-11T17:45:39.966Z,10.21
2023-01-11T17:48:14.004Z,10.21
2023-01-11T17:50:49.057Z,9.85
2023-01-11T17:53:25.923Z,10.19
2023-01-11T17:55:56.116Z,10.34
2023-01-11T17:58:27.571Z,10.31
2023-01-11T18:01:24.980Z,10.46
2023-01-11T18:03:54.693Z,9.45
2023-01-11T18:06:28.263Z,9.23
2023-01-11T18:08:59.504Z,9.02
2023-01-11T18:11:29.804Z,8.70
2023-01-11T18:14:01.149Z,8.56
2023-01-11T18:16:29.932Z,8.77
2023-01-11T18:18:58.524Z,8.36
2023-01-11T18:21:42.224Z,9.19
2023-01-11T18:24:48.089Z,9.00
2023-01-11T18:27:30.416Z,9.33
2023-01-11T18:30:06.303Z,8.92
2023-01-11T18:32:42.223Z,8.80
2023-01-11T18:35:19.013Z,7.93
2023-01-11T18:37:48.270Z,9.36
2023-01-11T18:40:19.509Z,9.46
2023-01-11T18:42:50.069Z,9.32
2023-01-11T18:45:18.824Z,9.31
2023-01-11T18:47:47.373Z,9.31
2023-01-11T18:50:18.066Z,9.11
2023-01-11T18:52:47.580Z,9.25
2023-01-11T18:55:18.016Z,9.08
2023-01-11T18:57:47.530Z,9.11
2023-01-11T19:00:18.712Z,9.02
2023-01-11T19:02:47.851Z,9.57
2023-01-11T19:05:19.354Z,9.45
2023-01-11T19:07:48.611Z,9.10
2023-01-11T19:10:20.984Z,9.13
2023-01-11T19:12:49.595Z,8.63
2023-01-11T19:15:18.170Z,9.18
2023-01-11T19:17:52.175Z,9.32
2023-01-11T19:20:21.478Z,9.54
2023-01-11T19:22:52.393Z,9.48
2023-01-11T19:25:23.030Z,9.26
2023-01-11T19:27:54.811Z,9.08
2023-01-11T19:30:35.484Z,8.68
2023-01-11T19:33:05.888Z,8.73
2023-01-11T19:35:37.261Z,8.63
2023-01-11T19:38:22.359Z,8.90
2023-01-11T19:40:52.199Z,8.42
2023-01-11T19:43:21.034Z,8.71
2023-01-11T19:46:00.394Z,8.68
2023-01-11T19:48:43.383Z,8.44
2023-01-11T19:51:14.212Z,8.78
2023-01-11T19:53:42.821Z,8.58
2023-01-11T19:56:12.583Z,8.83
2023-01-11T19:58:40.954Z,9.00
2023-01-11T20:01:13.770Z,7.91
2023-01-11T20:03:42.838Z,8.61
2023-01-11T20:06:11.439Z,8.35
2023-01-11T20:08:42.132Z,8.54
2023-01-11T20:11:14.853Z,8.44
2023-01-11T20:13:45.517Z,8.16
2023-01-11T20:16:15.189Z,8.66
2023-01-11T20:18:43.577Z,8.89
2023-01-11T20:21:13.794Z,8.92
2023-01-11T20:23:41.981Z,8.53
2023-01-11T20:26:15.638Z,8.34
2023-01-11T20:28:50.395Z,8.10
2023-01-11T20:31:22.108Z,7.80
2023-01-11T20:33:55.053Z,8.46
2023-01-11T20:36:26.838Z,8.30
2023-01-11T20:38:55.714Z,8.50
2023-01-11T20:41:44.578Z,7.76
2023-01-11T20:44:16.261Z,8.09
2023-01-11T20:46:47.735Z,8.15
2023-01-11T20:49:32.209Z,8.02
2023-01-11T20:52:00.799Z,7.96
2023-01-11T20:54:40.389Z,7.79
2023-01-11T20:57:12.715Z,8.15
2023-01-11T20:59:42.592Z,7.98
2023-01-11T21:02:13.712Z,8.00
2023-01-11T21:04:42.137Z,8.16
2023-01-11T21:07:10.877Z,8.27
2023-01-11T21:09:39.338Z,8.18
2023-01-11T21:12:09.530Z,8.45
2023-01-11T21:14:41.167Z,8.56
2023-01-11T21:17:10.945Z,8.51
2023-01-11T21:19:39.436Z,8.62
2023-01-11T21:22:07.752Z,8.80
2023-01-11T21:24:38.699Z,8.57
2023-01-11T21:27:07.054Z,8.47
2023-01-11T21:29:35.546Z,8.36
2023-01-11T21:32:03.916Z,8.55
2023-01-11T21:34:33.567Z,8.72
2023-01-11T21:37:01.847Z,8.38
2023-01-11T21:39:30.122Z,8.07
2023-01-11T21:41:59.815Z,8.38
2023-01-11T21:44:33.800Z,8.60
2023-01-11T21:47:03.771Z,9.03
2023-01-11T21:49:34.340Z,9.18
2023-01-11T21:52:02.651Z,9.06
2023-01-11T21:54:31.030Z,8.73
2023-01-11T21:56:59.305Z,8.56
2023-01-11T21:59:28.194Z,8.23
2023-01-11T22:01:56.447Z,8.50
2023-01-11T22:04:24.813Z,8.44
2023-01-11T22:06:55.898Z,8.91
2023-01-11T22:09:25.858Z,8.58
2023-01-11T22:11:54.272Z,8.09
2023-01-11T22:14:22.768Z,8.45
2023-01-11T22:16:51.294Z,8.06
2023-01-11T22:19:19.821Z,8.22
2023-01-11T22:21:48.070Z,8.29
2023-01-11T22:24:18.035Z,8.04
2023-01-11T22:26:46.372Z,8.28
2023-01-11T22:29:15.957Z,8.68
2023-01-11T22:31:47.281Z,8.93
2023-01-11T22:34:16.615Z,8.45
2023-01-11T22:36:46.046Z,7.86
2023-01-11T22:39:15.352Z,8.64
2023-01-11T22:41:46.120Z,8.56
2023-01-11T22:44:15.771Z,8.34
2023-01-11T22:46:44.804Z,8.15
2023-01-11T22:49:14.171Z,8.42
2023-01-11T22:51:43.790Z,7.96
2023-01-11T22:54:12.563Z,8.51
2023-01-11T22:56:41.375Z,8.37
2023-01-11T22:59:11.394Z,8.23
2023-01-11T23:01:41.164Z,8.33
2023-01-11T23:04:13.389Z,8.51
2023-01-11T23:06:43.396Z,8.50
2023-01-11T23:09:15.911Z,8.28
2023-01-11T23:12:02.615Z,8.17
2023-01-11T23:14:33.830Z,8.24
2023-01-11T23:17:05.261Z,8.47
2023-01-11T23:19:34.061Z,8.60
2023-01-11T23:22:02.487Z,8.39
2023-01-11T23:24:30.862Z,8.75
2023-01-11T23:26:59.346Z,8.68
2023-01-11T23:29:27.774Z,8.99
2023-01-11T23:31:57.640Z,9.13
2023-01-11T23:34:26.088Z,9.22
2023-01-11T23:36:54.377Z,9.26
2023-01-11T23:39:23.973Z,9.10
2023-01-11T23:42:09.778Z,9.17
2023-01-11T23:44:38.085Z,8.96
2023-01-11T23:47:22.067Z,8.19
2023-01-11T23:49:51.342Z,8.07
2023-01-11T23:52:21.018Z,8.41
2023-01-11T23:54:49.417Z,8.67
2023-01-11T23:57:19.334Z,8.49
2023-01-11T23:59:47.943Z,8.21
